createdAt,value
2023-01-26T00:01:15.159Z,37.60
2023-01-26T00:03:42.343Z,36.93
2023-01-26T00:06:11.542Z,39.37
2023-01-26T00:08:49.471Z,36.50
2023-01-26T00:11:19.610Z,37.57
2023-01-26T00:13:46.219Z,35.27
2023-01-26T00:16:15.809Z,38.47
2023-01-26T00:18:43.056Z,36.37
2023-01-26T00:21:14.543Z,35.00
2023-01-26T00:23:41.632Z,35.33
2023-01-26T00:26:11.152Z,37.87
2023-01-26T00:28:37.708Z,39.87
2023-01-26T00:31:06.632Z,39.80
2023-01-26T00:33:33.458Z,36.83
2023-01-26T00:36:00.355Z,36.77
2023-01-26T00:38:27.204Z,38.00
2023-01-26T00:40:53.888Z,38.40
2023-01-26T00:43:20.629Z,39.30
2023-01-26T00:45:47.345Z,38.87
2023-01-26T00:48:14.030Z,35.47
2023-01-26T00:50:40.587Z,37.70
2023-01-26T00:53:07.159Z,36.50
2023-01-26T00:55:33.809Z,40.33
2023-01-26T00:58:06.099Z,38.90
2023-01-26T01:00:34.320Z,36.93
2023-01-26T01:03:00.982Z,38.40
2023-01-26T01:05:30.504Z,38.60
2023-01-26T01:07:57.844Z,40.43
2023-01-26T01:10:27.301Z,38.03
2023-01-26T01:12:54.209Z,34.10
2023-01-26T01:15:20.813Z,37.70
2023-01-26T01:17:47.407Z,40.07
2023-01-26T01:20:14.234Z,37.97
2023-01-26T01:22:40.825Z,36.60
2023-01-26T01:25:07.802Z,37.80
2023-01-26T01:27:43.087Z,39.77
2023-01-26T01:30:10.827Z,36.73
2023-01-26T01:32:39.566Z,36.87
2023-01-26T01:35:06.989Z,37.13
2023-01-26T01:37:33.599Z,39.00
2023-01-26T01:40:00.414Z,38.63
2023-01-26T01:42:27.055Z,37.70
2023-01-26T01:45:21.585Z,37.67
2023-01-26T01:47:48.183Z,38.53
2023-01-26T01:50:18.315Z,36.70
2023-01-26T01:52:45.560Z,38.23
2023-01-26T01:55:14.862Z,38.73
2023-01-26T01:57:55.861Z,37.27
2023-01-26T02:00:23.910Z,38.70
2023-01-26T02:03:13.829Z,36.43
2023-01-26T02:06:01.293Z,36.80
2023-01-26T02:08:33.049Z,35.63
2023-01-26T02:11:04.374Z,37.60
2023-01-26T02:13:33.340Z,37.97
2023-01-26T02:16:00.727Z,36.63
2023-01-26T02:18:28.183Z,37.03
2023-01-26T02:21:07.093Z,36.77
2023-01-26T02:23:50.935Z,33.97
2023-01-26T02:26:28.918Z,35.77
2023-01-26T02:28:55.681Z,35.80
2023-01-26T02:31:23.376Z,37.70
2023-01-26T02:33:50.209Z,37.57
2023-01-26T02:36:23.806Z,37.20
2023-01-26T02:38:58.067Z,35.20
2023-01-26T02:41:43.187Z,33.53
2023-01-26T02:44:12.077Z,33.67
2023-01-26T02:46:38.739Z,34.97
2023-01-26T02:49:23.821Z,36.57
2023-01-26T02:51:50.411Z,36.23
2023-01-26T02:54:35.454Z,35.13
2023-01-26T02:57:02.039Z,36.43
2023-01-26T02:59:28.755Z,35.57
2023-01-26T03:01:57.538Z,38.33
2023-01-26T03:04:24.425Z,35.97
2023-01-26T03:06:51.224Z,34.80
2023-01-26T03:09:17.781Z,33.37
2023-01-26T03:11:44.569Z,36.07
2023-01-26T03:14:13.082Z,36.30
2023-01-26T03:16:40.416Z,35.43
2023-01-26T03:19:27.751Z,33.17
2023-01-26T03:22:13.207Z,33.33
2023-01-26T03:24:58.608Z,33.00
2023-01-26T03:27:28.203Z,33.47
2023-01-26T03:29:56.195Z,34.50
2023-01-26T03:32:23.487Z,33.50
2023-01-26T03:34:50.039Z,32.80
2023-01-26T03:37:21.973Z,30.57
2023-01-26T03:40:25.377Z,30.83
2023-01-26T03:43:10.356Z,31.70
2023-01-26T03:45:55.294Z,32.33
2023-01-26T03:48:40.620Z,32.10
2023-01-26T03:51:25.811Z,31.50
2023-01-26T03:54:11.171Z,31.20
2023-01-26T03:56:37.862Z,30.63
2023-01-26T03:59:09.536Z,29.20
2023-01-26T04:01:41.773Z,28.73
2023-01-26T04:04:29.357Z,31.30
2023-01-26T04:07:17.131Z,30.30
2023-01-26T04:09:46.817Z,28.50
2023-01-26T04:12:14.038Z,33.33
2023-01-26T04:14:59.466Z,31.17
2023-01-26T04:17:44.643Z,31.03
2023-01-26T04:20:30.056Z,31.23
2023-01-26T04:22:56.586Z,31.50
2023-01-26T04:25:25.935Z,31.27
2023-01-26T04:27:52.477Z,29.93
2023-01-26T04:30:19.815Z,31.37
2023-01-26T04:32:46.502Z,32.63
2023-01-26T04:35:16.258Z,30.70
2023-01-26T04:37:42.814Z,30.23
2023-01-26T04:40:10.544Z,30.87
2023-01-26T04:42:37.294Z,29.47
2023-01-26T04:45:04.134Z,29.03
2023-01-26T04:47:30.879Z,29.77
2023-01-26T04:49:57.441Z,27.70
2023-01-26T04:52:24.003Z,29.57
2023-01-26T04:54:50.926Z,30.60
2023-01-26T04:57:20.456Z,27.13
2023-01-26T04:59:47.096Z,28.63
2023-01-26T05:02:13.646Z,28.07
2023-01-26T05:04:40.233Z,30.73
2023-01-26T05:07:06.814Z,28.50
2023-01-26T05:09:33.394Z,27.90
2023-01-26T05:12:22.529Z,30.23
2023-01-26T05:14:49.081Z,29.80
2023-01-26T05:17:15.648Z,28.00
2023-01-26T05:19:42.246Z,27.37
2023-01-26T05:22:09.968Z,26.10
2023-01-26T05:24:38.215Z,27.27
2023-01-26T05:27:23.132Z,26.43
2023-01-26T05:29:50.680Z,23.83
2023-01-26T05:32:17.622Z,25.90
2023-01-26T05:34:44.248Z,24.50
2023-01-26T05:37:13.628Z,24.00
2023-01-26T05:39:41.198Z,24.97
2023-01-26T05:42:07.841Z,23.23
2023-01-26T05:44:34.406Z,23.17
2023-01-26T05:47:01.005Z,24.10
2023-01-26T05:49:27.564Z,23.60
2023-01-26T05:51:54.190Z,21.40
2023-01-26T05:54:20.791Z,22.23
2023-01-26T05:56:47.371Z,19.97
2023-01-26T05:59:14.345Z,22.00
2023-01-26T06:01:41.125Z,20.07
2023-01-26T06:04:08.156Z,22.30
2023-01-26T06:06:35.016Z,20.63
2023-01-26T06:09:01.720Z,21.90
2023-01-26T06:11:28.306Z,22.10
2023-01-26T06:13:54.849Z,22.53
2023-01-26T06:16:21.571Z,20.60
2023-01-26T06:18:49.725Z,21.63
2023-01-26T06:21:16.591Z,21.30
2023-01-26T06:23:43.213Z,20.33
2023-01-26T06:26:10.935Z,21.30
2023-01-26T06:28:37.605Z,20.23
2023-01-26T06:31:05.905Z,20.27
2023-01-26T06:33:34.834Z,20.50
2023-01-26T06:36:06.386Z,19.83
2023-01-26T06:38:33.216Z,20.80
2023-01-26T06:41:02.888Z,19.67
2023-01-26T06:43:31.153Z,21.00
2023-01-26T06:45:58.599Z,21.17
2023-01-26T06:48:26.582Z,19.30
2023-01-26T06:50:56.104Z,19.43
2023-01-26T06:53:40.027Z,19.90
2023-01-26T06:56:06.658Z,20.47
2023-01-26T06:58:33.234Z,21.87
2023-01-26T07:01:00.658Z,19.33
2023-01-26T07:03:27.231Z,19.47
2023-01-26T07:05:53.783Z,19.17
2023-01-26T07:08:20.367Z,18.57
2023-01-26T07:10:46.947Z,18.57
2023-01-26T07:13:13.527Z,18.10
2023-01-26T07:15:40.105Z,18.27
2023-01-26T07:18:06.687Z,17.57
2023-01-26T07:20:33.241Z,19.27
2023-01-26T07:23:00.790Z,16.87
2023-01-26T07:25:27.591Z,16.27
2023-01-26T07:27:58.285Z,16.87
2023-01-26T07:30:25.473Z,17.00
2023-01-26T07:32:52.043Z,17.57
2023-01-26T07:35:18.601Z,16.00
2023-01-26T07:37:45.170Z,17.63
2023-01-26T07:40:12.506Z,16.80
2023-01-26T07:42:39.301Z,16.13
2023-01-26T07:45:06.562Z,17.73
2023-01-26T07:47:33.140Z,16.57
2023-01-26T07:49:59.697Z,16.43
2023-01-26T07:52:26.564Z,16.00
2023-01-26T07:54:53.131Z,17.30
2023-01-26T07:57:19.672Z,16.90
2023-01-26T07:59:46.214Z,19.37
2023-01-26T08:02:12.880Z,17.93
2023-01-26T08:04:39.413Z,17.00
2023-01-26T08:07:05.963Z,17.60
2023-01-26T08:09:32.686Z,18.33
2023-01-26T08:11:59.294Z,17.50
2023-01-26T08:14:31.075Z,18.53
2023-01-26T08:17:02.462Z,17.70
2023-01-26T08:19:29.102Z,18.00
2023-01-26T08:21:57.528Z,19.40
2023-01-26T08:24:24.350Z,18.63
2023-01-26T08:26:50.946Z,19.87
2023-01-26T08:29:18.116Z,19.73
2023-01-26T08:31:44.749Z,19.47
2023-01-26T08:34:14.062Z,19.63
2023-01-26T08:36:40.764Z,17.30
2023-01-26T08:39:07.323Z,18.00
2023-01-26T08:41:34.008Z,17.63
2023-01-26T08:44:00.663Z,16.50
2023-01-26T08:46:29.483Z,15.80
2023-01-26T08:48:57.269Z,14.77
2023-01-26T08:51:24.783Z,16.73
2023-01-26T08:53:53.591Z,17.47
2023-01-26T08:56:20.581Z,15.20
2023-01-26T08:58:47.274Z,15.40
2023-01-26T09:01:16.096Z,15.80
2023-01-26T09:03:44.496Z,13.30
2023-01-26T09:06:13.499Z,12.60
2023-01-26T09:08:40.541Z,13.20
2023-01-26T09:11:08.215Z,14.13
2023-01-26T09:13:37.021Z,12.23
2023-01-26T09:16:05.003Z,11.90
2023-01-26T09:18:31.643Z,12.47
2023-01-26T09:21:09.083Z,12.40
2023-01-26T09:23:36.428Z,13.93
2023-01-26T09:26:03.637Z,12.83
2023-01-26T09:28:30.558Z,11.27
2023-01-26T09:30:57.257Z,10.57
2023-01-26T09:33:25.214Z,12.10
2023-01-26T09:35:51.832Z,13.57
2023-01-26T09:38:18.428Z,12.50
2023-01-26T09:41:03.206Z,12.83
2023-01-26T09:43:39.256Z,10.43
2023-01-26T09:46:33.596Z,12.00
2023-01-26T09:49:35.312Z,12.17
2023-01-26T09:52:51.444Z,10.67
2023-01-26T09:55:21.295Z,10.47
2023-01-26T09:58:03.739Z,11.20
2023-01-26T10:00:47.514Z,10.87
2023-01-26T10:03:31.920Z,12.40
2023-01-26T10:06:18.273Z,10.57
2023-01-26T10:08:45.148Z,10.23
2023-01-26T10:11:24.669Z,9.53
2023-01-26T10:13:57.246Z,8.80
2023-01-26T10:16:25.215Z,9.53
2023-01-26T10:18:59.251Z,9.20
2023-01-26T10:21:30.799Z,8.90
2023-01-26T10:24:00.744Z,7.30
2023-01-26T10:26:30.983Z,8.07
2023-01-26T10:28:58.182Z,7.70
2023-01-26T10:31:32.287Z,7.77
2023-01-26T10:34:03.257Z,8.63
2023-01-26T10:36:31.849Z,8.60
2023-01-26T10:39:09.831Z,7.00
2023-01-26T10:41:37.332Z,6.57
2023-01-26T10:44:24.230Z,6.13
2023-01-26T10:47:22.551Z,6.83
2023-01-26T10:49:49.468Z,7.03
2023-01-26T10:52:22.344Z,7.27
2023-01-26T10:54:53.725Z,7.13
2023-01-26T10:57:28.167Z,7.00
2023-01-26T11:00:08.067Z,6.97
2023-01-26T11:02:36.396Z,6.60
2023-01-26T11:05:09.072Z,7.10
2023-01-26T11:07:38.606Z,7.90
2023-01-26T11:10:29.791Z,7.17
2023-01-26T11:13:20.005Z,8.70
2023-01-26T11:15:49.257Z,8.20
2023-01-26T11:18:27.423Z,8.83
2023-01-26T11:21:08.143Z,10.13
2023-01-26T11:23:51.302Z,8.60
2023-01-26T11:26:30.586Z,8.67
2023-01-26T11:29:18.674Z,10.03
2023-01-26T11:31:57.448Z,8.27
2023-01-26T11:34:37.165Z,6.70
2023-01-26T11:37:36.781Z,8.30
2023-01-26T11:40:18.535Z,7.37
2023-01-26T11:43:13.421Z,7.57
2023-01-26T11:45:53.037Z,6.90
2023-01-26T11:48:23.006Z,7.90
2023-01-26T11:51:00.348Z,7.27
2023-01-26T11:53:50.711Z,8.03
2023-01-26T11:56:31.998Z,7.80
2023-01-26T11:59:17.986Z,7.93
2023-01-26T12:01:51.700Z,7.60
2023-01-26T12:04:20.767Z,7.40
2023-01-26T12:07:08.984Z,6.73
2023-01-26T12:09:42.643Z,7.27
2023-01-26T12:12:19.656Z,7.53
2023-01-26T12:15:17.229Z,6.70
2023-01-26T12:18:04.485Z,5.93
2023-01-26T12:20:31.035Z,5.80
2023-01-26T12:23:27.931Z,7.27
2023-01-26T12:26:03.211Z,6.80
2023-01-26T12:28:50.693Z,6.37
2023-01-26T12:31:38.429Z,6.80
2023-01-26T12:34:12.023Z,6.90
2023-01-26T12:37:10.545Z,6.60
2023-01-26T12:40:11.678Z,7.53
2023-01-26T12:43:03.590Z,7.33
2023-01-26T12:45:35.890Z,6.77
2023-01-26T12:48:13.322Z,6.50
2023-01-26T12:50:45.972Z,6.77
2023-01-26T12:53:33.988Z,7.10
2023-01-26T12:56:26.737Z,5.50
2023-01-26T12:58:55.424Z,6.70
2023-01-26T13:01:24.396Z,7.40
2023-01-26T13:04:02.286Z,7.00
2023-01-26T13:06:29.269Z,8.37
2023-01-26T13:09:04.479Z,7.80
2023-01-26T13:11:58.863Z,8.20
2023-01-26T13:14:26.486Z,7.30
2023-01-26T13:16:53.202Z,7.83
2023-01-26T13:19:37.065Z,8.07
2023-01-26T13:22:03.826Z,7.70
2023-01-26T13:24:30.431Z,8.40
2023-01-26T13:26:58.562Z,8.50
2023-01-26T13:29:25.114Z,9.97
2023-01-26T13:31:52.734Z,9.20
2023-01-26T13:34:39.493Z,9.67
2023-01-26T13:37:20.104Z,9.60
2023-01-26T13:39:55.037Z,10.50
2023-01-26T13:42:28.567Z,10.00
2023-01-26T13:45:02.879Z,11.13
2023-01-26T13:47:39.035Z,10.20
2023-01-26T13:50:34.546Z,10.87
2023-01-26T13:53:01.128Z,11.30
2023-01-26T13:55:31.787Z,12.00
2023-01-26T13:58:18.404Z,11.93
2023-01-26T14:01:04.187Z,12.70
2023-01-26T14:03:31.320Z,12.27
2023-01-26T14:06:02.407Z,13.10
2023-01-26T14:08:31.457Z,13.20
2023-01-26T14:10:59.314Z,12.47
2023-01-26T14:13:36.284Z,11.13
2023-01-26T14:16:08.466Z,13.03
2023-01-26T14:18:35.406Z,13.07
2023-01-26T14:21:05.605Z,11.50
2023-01-26T14:23:36.946Z,13.33
2023-01-26T14:26:11.875Z,12.30
2023-01-26T14:28:42.992Z,12.23
2023-01-26T14:31:18.450Z,11.80
2023-01-26T14:33:45.397Z,12.57
2023-01-26T14:36:18.226Z,13.17
2023-01-26T14:38:50.295Z,13.67
2023-01-26T14:41:22.711Z,13.17
2023-01-26T14:43:56.589Z,13.23
2023-01-26T14:46:31.683Z,11.07
2023-01-26T14:49:42.626Z,12.80
2023-01-26T14:52:27.225Z,11.80
2023-01-26T14:54:56.371Z,11.50
2023-01-26T14:57:27.359Z,12.87
2023-01-26T15:00:09.582Z,12.63
2023-01-26T15:02:42.656Z,12.53
2023-01-26T15:05:21.718Z,13.17
2023-01-26T15:07:58.909Z,12.57
2023-01-26T15:10:41.344Z,12.07
2023-01-26T15:13:10.626Z,10.90
2023-01-26T15:15:48.945Z,11.70
2023-01-26T15:18:20.831Z,11.10
2023-01-26T15:21:02.301Z,12.80
2023-01-26T15:23:37.349Z,10.60
2023-01-26T15:26:09.815Z,12.13
2023-01-26T15:28:38.553Z,12.13
2023-01-26T15:31:06.076Z,11.43
2023-01-26T15:33:50.999Z,12.20
2023-01-26T15:36:46.103Z,12.60
2023-01-26T15:39:15.085Z,11.50
2023-01-26T15:41:43.248Z,11.97
2023-01-26T15:44:20.199Z,12.83
2023-01-26T15:46:46.951Z,12.93
2023-01-26T15:49:14.073Z,13.20
2023-01-26T15:51:40.999Z,13.00
2023-01-26T15:54:10.046Z,12.67
2023-01-26T15:56:36.592Z,14.33
2023-01-26T15:59:03.647Z,17.57
2023-01-26T16:01:30.211Z,15.53
2023-01-26T16:03:56.774Z,18.47
2023-01-26T16:06:28.693Z,17.63
2023-01-26T16:08:57.107Z,19.50
2023-01-26T16:11:31.332Z,18.60
2023-01-26T16:14:03.574Z,19.50
2023-01-26T16:16:32.420Z,19.53
2023-01-26T16:18:59.299Z,19.77
2023-01-26T16:21:31.166Z,20.20
2023-01-26T16:23:57.834Z,21.40
2023-01-26T16:26:26.291Z,21.17
2023-01-26T16:28:53.039Z,20.00
2023-01-26T16:31:22.840Z,18.70
2023-01-26T16:33:49.995Z,19.93
2023-01-26T16:36:18.780Z,20.50
2023-01-26T16:38:46.366Z,18.90
2023-01-26T16:41:25.435Z,19.63
2023-01-26T16:43:57.311Z,22.70
2023-01-26T16:46:24.504Z,17.97
2023-01-26T16:48:51.712Z,18.87
2023-01-26T16:51:25.592Z,19.40
2023-01-26T16:53:52.593Z,16.63
2023-01-26T16:56:19.803Z,15.83
2023-01-26T16:58:46.800Z,15.70
2023-01-26T17:01:25.346Z,18.33
2023-01-26T17:03:52.131Z,19.87
2023-01-26T17:06:19.432Z,18.50
2023-01-26T17:08:46.919Z,18.07
2023-01-26T17:11:23.016Z,18.60
2023-01-26T17:13:50.200Z,19.67
2023-01-26T17:16:22.177Z,18.37
2023-01-26T17:18:49.258Z,18.40
2023-01-26T17:21:18.202Z,21.30
2023-01-26T17:23:47.744Z,16.23
2023-01-26T17:26:16.855Z,17.73
2023-01-26T17:28:44.733Z,20.10
2023-01-26T17:31:13.988Z,17.03
2023-01-26T17:33:40.624Z,15.40
2023-01-26T17:36:07.755Z,17.43
2023-01-26T17:38:34.420Z,15.27
2023-01-26T17:41:01.519Z,16.67
2023-01-26T17:43:28.461Z,17.00
2023-01-26T17:46:03.353Z,17.17
2023-01-26T17:48:30.152Z,20.30
2023-01-26T17:50:56.787Z,18.60
2023-01-26T17:53:27.916Z,20.47
2023-01-26T17:55:54.795Z,18.07
2023-01-26T17:58:21.613Z,20.13
2023-01-26T18:00:48.204Z,21.57
2023-01-26T18:03:16.737Z,20.90
2023-01-26T18:05:53.578Z,19.63
2023-01-26T18:08:20.223Z,20.20
2023-01-26T18:10:47.033Z,20.07
2023-01-26T18:13:14.498Z,19.63
2023-01-26T18:15:41.369Z,18.20
2023-01-26T18:18:08.125Z,17.20
2023-01-26T18:20:34.890Z,19.37
2023-01-26T18:23:01.556Z,17.07
2023-01-26T18:25:28.172Z,17.47
2023-01-26T18:27:54.721Z,17.47
2023-01-26T18:30:22.366Z,17.20
2023-01-26T18:32:49.009Z,18.40
2023-01-26T18:35:15.671Z,18.13
2023-01-26T18:37:42.216Z,17.10
2023-01-26T18:40:09.746Z,16.27
2023-01-26T18:42:36.294Z,19.77
2023-01-26T18:45:03.015Z,17.60
2023-01-26T18:47:30.973Z,17.87
2023-01-26T18:49:57.859Z,18.80
2023-01-26T18:52:24.777Z,18.97
2023-01-26T18:54:51.587Z,19.60
2023-01-26T18:57:18.817Z,19.80
2023-01-26T18:59:45.383Z,19.30
2023-01-26T19:02:15.367Z,17.67
2023-01-26T19:04:42.157Z,17.70
2023-01-26T19:07:10.006Z,19.10
2023-01-26T19:09:36.954Z,17.13
2023-01-26T19:12:04.556Z,18.50
2023-01-26T19:14:35.046Z,16.87
2023-01-26T19:17:01.950Z,14.60
2023-01-26T19:19:29.341Z,15.40
2023-01-26T19:21:56.227Z,17.17
2023-01-26T19:24:23.180Z,18.03
2023-01-26T19:26:49.854Z,14.40
2023-01-26T19:29:16.555Z,12.20
2023-01-26T19:31:43.310Z,11.23
2023-01-26T19:34:14.062Z,9.93
2023-01-26T19:36:40.882Z,9.20
2023-01-26T19:39:07.546Z,8.70
2023-01-26T19:41:34.645Z,6.97
2023-01-26T19:44:01.655Z,8.23
2023-01-26T19:46:28.446Z,7.00
2023-01-26T19:48:55.108Z,7.13
2023-01-26T19:51:24.842Z,6.20
2023-01-26T19:53:55.059Z,5.50
2023-01-26T19:56:33.044Z,6.50
2023-01-26T19:59:01.988Z,7.10
2023-01-26T20:01:31.124Z,5.60
2023-01-26T20:04:02.474Z,5.80
2023-01-26T20:06:32.985Z,5.77
2023-01-26T20:09:00.498Z,5.00
2023-01-26T20:11:29.360Z,5.70
2023-01-26T20:13:57.950Z,5.60
2023-01-26T20:16:27.977Z,5.10
2023-01-26T20:18:56.347Z,5.90
2023-01-26T20:21:23.623Z,6.03
2023-01-26T20:23:54.760Z,4.20
2023-01-26T20:26:24.034Z,4.60
2023-01-26T20:28:51.541Z,5.30
2023-01-26T20:31:21.434Z,4.60
2023-01-26T20:33:49.598Z,3.80
2023-01-26T20:36:19.366Z,4.20
2023-01-26T20:38:48.156Z,4.30
2023-01-26T20:41:17.715Z,5.60
2023-01-26T20:43:58.512Z,5.17
2023-01-26T20:46:31.421Z,3.90
2023-01-26T20:48:58.138Z,4.03
2023-01-26T20:51:29.383Z,4.07
2023-01-26T20:53:57.509Z,4.13
2023-01-26T20:56:24.273Z,4.97
2023-01-26T20:58:55.167Z,5.13
2023-01-26T21:01:22.938Z,6.17
2023-01-26T21:03:49.822Z,6.30
2023-01-26T21:06:21.297Z,6.90
2023-01-26T21:08:49.268Z,5.07
2023-01-26T21:11:17.037Z,4.10
2023-01-26T21:13:44.275Z,4.80
2023-01-26T21:16:14.132Z,4.20
2023-01-26T21:18:41.344Z,4.13
2023-01-26T21:21:11.632Z,4.50
2023-01-26T21:23:38.965Z,4.23
2023-01-26T21:26:12.040Z,3.57
2023-01-26T21:28:38.890Z,4.00
2023-01-26T21:31:18.723Z,4.00
2023-01-26T21:33:47.962Z,4.43
2023-01-26T21:36:17.537Z,3.97
2023-01-26T21:38:46.385Z,4.13
2023-01-26T21:41:34.394Z,4.77
2023-01-26T21:44:03.182Z,4.40
2023-01-26T21:46:31.023Z,4.40
2023-01-26T21:48:57.838Z,4.03
2023-01-26T21:51:43.995Z,4.37
2023-01-26T21:54:11.394Z,3.77
2023-01-26T21:56:38.049Z,3.67
2023-01-26T21:59:07.482Z,3.50
2023-01-26T22:01:36.766Z,3.70
2023-01-26T22:04:07.498Z,2.53
2023-01-26T22:06:34.920Z,3.20
2023-01-26T22:09:01.591Z,2.90
2023-01-26T22:11:28.633Z,2.97
2023-01-26T22:13:55.298Z,3.03
2023-01-26T22:16:22.268Z,3.20
2023-01-26T22:18:49.270Z,3.20
2023-01-26T22:21:17.184Z,2.60
2023-01-26T22:23:44.015Z,3.30
2023-01-26T22:26:16.261Z,3.60
2023-01-26T22:28:49.825Z,3.30
2023-01-26T22:31:19.630Z,3.23
2023-01-26T22:33:46.854Z,2.87
2023-01-26T22:36:13.523Z,3.40
2023-01-26T22:38:41.544Z,2.97
2023-01-26T22:41:11.541Z,2.63
2023-01-26T22:43:38.140Z,2.13
2023-01-26T22:46:09.666Z,2.57
2023-01-26T22:48:36.308Z,2.70
2023-01-26T22:51:10.806Z,2.50
2023-01-26T22:53:37.918Z,3.20
2023-01-26T22:56:05.700Z,2.73
2023-01-26T22:58:34.315Z,3.57
2023-01-26T23:01:14.624Z,3.00
2023-01-26T23:03:42.548Z,2.70
2023-01-26T23:06:13.911Z,2.77
2023-01-26T23:08:41.450Z,3.60
2023-01-26T23:11:14.442Z,2.90
2023-01-26T23:13:42.567Z,3.67
2023-01-26T23:16:09.799Z,3.00
2023-01-26T23:18:36.818Z,2.97
2023-01-26T23:21:03.956Z,3.00
2023-01-26T23:23:31.031Z,3.57
2023-01-26T23:25:58.794Z,3.07
2023-01-26T23:28:28.552Z,3.23
2023-01-26T23:30:56.483Z,5.37
2023-01-26T23:33:24.883Z,3.00
2023-01-26T23:35:51.934Z,3.50
2023-01-26T23:38:20.793Z,3.53
2023-01-26T23:40:49.542Z,4.00
2023-01-26T23:43:17.532Z,3.37
2023-01-26T23:45:45.866Z,3.73
2023-01-26T23:48:12.969Z,3.30
2023-01-26T23:50:39.635Z,3.70
2023-01-26T23:53:07.095Z,3.87
2023-01-26T23:55:33.987Z,3.37
2023-01-26T23:58:00.767Z,3.00
